Главная страница
METAR-TAF:

METAR-TAF

Аэропорты :

Пуант-а-Питр, Гваделупа

широта: 16-16N, долгота: 061-31W, высота над уровнем моря: 11 м

Текущие метеонаблюдения

Эта сводка был подготовлена 20 минут назад, в 18:00 UTC
Ветер 10 Узел от юго-восточный, изменяющийся между восточно-юго-восточный и южный
Температура 28°C
Влажность 62%
Давление 1016 hPa
Видимость 10 км и более
небольшая облачность на высоте 3400 фута

METAR: TFFR 121800Z AUTO 14010KT 110V170 9999 FEW034 28/20 Q1016 NOSIG

Время: 14:20 (18:20 UTC)

Прогноз

Эта сводка был подготовлена 1 час и 20 минут назад, в 17:00 UTC
Прогноз действительный с 12-го 18 UTC до 13-го 18 UTC
Ветер 10 Узел от восточно-юго-восточный
Видимость 10 км и более
Отдельные облака на высоте 3000 фута
Вероятность 40% :
временами
С 13-го 03 UTC до 13-го 18 UTC
Видимость: 4000 м
Рассеянная облачность на высоте 1800 фута, мощно-кучевые.
ливневые дожди

TAF: TFFR 121700Z 1218/1318 12010KT 9999 SCT030 PROB40 TEMPO 1303/1318 4000 SHRA BKN018TCU

Метеонаблюдения и прогнозы для более 4000 аэропортов (сводки METAR и TAF).

Имеющиеся станции представлены на карте желтыми и красными точками.

Чтобы увидеть название станции, наведите на нее мышь.

Затем щелкните, чтобы увидеть метеонаблюдения и метеопрогнозы.

Управление картой: чтобы увеличить масштаб, щелкните зеленые кнопки с черным крестиком; чтобы уменьшить масштаб, щелкните зеленую кнопку с тире; для просмотра соседних карт щелкайте зеленые стрелки.


METAR-TAF: